createdAt,value
2018-11-22T00:02:08.260Z,2.30
2018-11-22T00:04:37.785Z,2.20
2018-11-22T00:07:07.864Z,2.30
2018-11-22T00:09:37.474Z,2.20
2018-11-22T00:12:06.957Z,2.20
2018-11-22T00:14:36.473Z,2.20
2018-11-22T00:17:06.464Z,2.20
2018-11-22T00:19:35.907Z,2.20
2018-11-22T00:22:05.501Z,2.20
2018-11-22T00:24:34.965Z,2.20
2018-11-22T00:27:04.609Z,2.30
2018-11-22T00:29:34.233Z,2.20
2018-11-22T00:32:03.869Z,2.30
2018-11-22T00:34:33.425Z,2.30
2018-11-22T00:37:02.924Z,2.30
2018-11-22T00:39:32.440Z,2.30
2018-11-22T00:42:01.962Z,2.30
2018-11-22T00:44:31.460Z,2.20
2018-11-22T00:47:00.993Z,2.20
2018-11-22T00:49:30.507Z,2.20
2018-11-22T00:52:00.035Z,2.20
2018-11-22T00:54:29.601Z,2.20
2018-11-22T00:56:59.184Z,2.20
2018-11-22T00:59:28.647Z,2.20
2018-11-22T01:01:58.256Z,2.20
2018-11-22T01:04:27.836Z,2.20
2018-11-22T01:06:57.401Z,2.20
2018-11-22T01:09:26.915Z,2.20
2018-11-22T01:11:56.354Z,2.20
2018-11-22T01:14:25.865Z,2.20
2018-11-22T01:16:55.401Z,2.20
2018-11-22T01:19:24.954Z,2.30
2018-11-22T01:21:54.488Z,2.20
2018-11-22T01:24:24.037Z,2.20
2018-11-22T01:26:53.469Z,2.30
2018-11-22T01:29:22.907Z,2.30
2018-11-22T01:31:52.531Z,2.30
2018-11-22T01:34:22.099Z,2.30
2018-11-22T01:36:51.729Z,2.30
2018-11-22T01:39:21.157Z,2.20
2018-11-22T01:41:50.655Z,2.20
2018-11-22T01:44:20.168Z,2.30
2018-11-22T01:46:49.653Z,2.30
2018-11-22T01:49:19.126Z,2.30
2018-11-22T01:51:48.539Z,2.30
2018-11-22T01:54:18.028Z,2.30
2018-11-22T01:56:47.424Z,2.30
2018-11-22T01:59:16.824Z,2.30
2018-11-22T02:01:46.318Z,2.30
2018-11-22T02:04:15.808Z,2.30
2018-11-22T02:06:45.292Z,2.30
2018-11-22T02:09:14.772Z,2.30
2018-11-22T02:11:44.179Z,2.30
2018-11-22T02:14:13.740Z,2.30
2018-11-22T02:16:43.216Z,2.30
2018-11-22T02:19:12.712Z,2.30
2018-11-22T02:21:42.215Z,2.30
2018-11-22T02:24:11.693Z,2.30
2018-11-22T02:26:41.260Z,2.30
2018-11-22T02:29:11.277Z,2.30
2018-11-22T02:31:40.773Z,2.30
2018-11-22T02:34:10.238Z,2.30
2018-11-22T02:36:39.732Z,2.30
2018-11-22T02:39:10.980Z,2.30
2018-11-22T02:41:40.468Z,2.30
2018-11-22T02:44:10.144Z,2.30
2018-11-22T02:46:39.636Z,2.30
2018-11-22T02:49:09.101Z,2.30
2018-11-22T02:51:38.526Z,2.30
2018-11-22T02:54:07.921Z,2.30
2018-11-22T02:56:37.479Z,2.30
2018-11-22T02:59:06.980Z,2.40
2018-11-22T03:01:36.366Z,2.40
2018-11-22T03:04:06.063Z,2.40
2018-11-22T03:06:35.539Z,2.30
2018-11-22T03:09:08.285Z,2.30
2018-11-22T03:11:37.765Z,2.40
2018-11-22T03:14:07.357Z,2.30
2018-11-22T03:16:37.129Z,2.40
2018-11-22T03:19:06.940Z,2.30
2018-11-22T03:21:36.332Z,2.40
2018-11-22T03:24:06.105Z,2.40
2018-11-22T03:26:35.475Z,2.40
2018-11-22T03:29:05.413Z,2.40
2018-11-22T03:31:34.939Z,2.40
2018-11-22T03:34:04.522Z,2.30
2018-11-22T03:36:34.009Z,2.40
2018-11-22T03:39:04.563Z,2.40
2018-11-22T03:41:33.965Z,2.30
2018-11-22T03:44:03.540Z,2.30
2018-11-22T03:46:33.333Z,2.30
2018-11-22T03:49:02.828Z,2.30
2018-11-22T03:51:32.403Z,2.30
2018-11-22T03:54:01.912Z,2.30
2018-11-22T03:56:31.389Z,2.40
2018-11-22T03:59:00.896Z,2.40
2018-11-22T04:01:30.306Z,2.30
2018-11-22T04:03:59.799Z,2.30
2018-11-22T04:06:29.191Z,2.30
2018-11-22T04:08:58.704Z,2.40
2018-11-22T04:11:28.096Z,2.30
2018-11-22T04:13:57.576Z,2.30
2018-11-22T04:16:26.984Z,2.40
2018-11-22T04:18:56.480Z,2.40
2018-11-22T04:21:25.889Z,2.40
2018-11-22T04:23:55.387Z,2.40
2018-11-22T04:26:24.896Z,2.40
2018-11-22T04:28:54.381Z,2.40
2018-11-22T04:31:24.013Z,2.40
2018-11-22T04:33:53.520Z,2.40
2018-11-22T04:36:23.025Z,2.40
2018-11-22T04:38:52.440Z,2.40
2018-11-22T04:41:21.933Z,2.40
2018-11-22T04:43:51.579Z,2.40
2018-11-22T04:46:21.211Z,2.40
2018-11-22T04:48:50.715Z,2.40
2018-11-22T04:51:20.293Z,2.40
2018-11-22T04:53:49.716Z,2.40
2018-11-22T04:56:19.302Z,2.40
2018-11-22T04:58:48.809Z,2.40
2018-11-22T05:01:18.308Z,2.40
2018-11-22T05:03:47.724Z,2.40
2018-11-22T05:06:17.226Z,2.40
2018-11-22T05:08:46.629Z,2.40
2018-11-22T05:11:16.150Z,2.40
2018-11-22T05:13:45.569Z,2.40
2018-11-22T05:16:14.989Z,2.40
2018-11-22T05:18:44.492Z,2.40
2018-11-22T05:21:14.093Z,2.40
2018-11-22T05:23:43.499Z,2.40
2018-11-22T05:26:13.004Z,2.40
2018-11-22T05:28:42.500Z,2.40
2018-11-22T05:31:11.997Z,2.40
2018-11-22T05:33:41.412Z,2.40
2018-11-22T05:36:10.931Z,2.40
2018-11-22T05:38:40.326Z,2.40
2018-11-22T05:41:09.840Z,2.40
2018-11-22T05:43:39.224Z,2.30
2018-11-22T05:46:08.836Z,2.40
2018-11-22T05:48:38.313Z,2.30
2018-11-22T05:51:07.825Z,2.30
2018-11-22T05:53:37.313Z,2.30
2018-11-22T05:56:07.020Z,2.30
2018-11-22T05:58:36.417Z,2.30
2018-11-22T06:01:06.044Z,2.30
2018-11-22T06:03:35.528Z,2.30
2018-11-22T06:06:05.125Z,2.30
2018-11-22T06:08:34.717Z,2.30
2018-11-22T06:11:04.302Z,2.30
2018-11-22T06:13:33.792Z,2.30
2018-11-22T06:16:03.327Z,2.30
2018-11-22T06:18:32.736Z,2.30
2018-11-22T06:21:02.172Z,2.30
2018-11-22T06:23:31.590Z,2.30
2018-11-22T06:26:01.090Z,2.30
2018-11-22T06:28:30.513Z,2.30
2018-11-22T06:31:00.020Z,2.20
2018-11-22T06:33:29.500Z,2.20
2018-11-22T06:35:58.920Z,2.20
2018-11-22T06:38:28.405Z,2.10
2018-11-22T06:40:57.835Z,2.10
2018-11-22T06:43:27.260Z,2.10
2018-11-22T06:45:56.765Z,2.10
2018-11-22T06:48:26.186Z,2.10
2018-11-22T06:50:58.225Z,2.10
2018-11-22T06:53:25.224Z,2.10
2018-11-22T06:55:54.728Z,2.10
2018-11-22T06:58:24.144Z,2.00
2018-11-22T07:00:53.551Z,2.00
2018-11-22T07:03:23.044Z,2.00
2018-11-22T07:05:52.633Z,2.00
2018-11-22T07:08:22.064Z,2.00
2018-11-22T07:10:51.549Z,2.00
2018-11-22T07:13:20.988Z,3.50
2018-11-22T07:15:50.396Z,3.00
2018-11-22T07:18:19.828Z,2.50
2018-11-22T07:20:49.416Z,2.30
2018-11-22T07:23:18.865Z,2.30
2018-11-22T07:25:48.269Z,3.00
2018-11-22T07:28:17.757Z,2.70
2018-11-22T07:30:47.253Z,2.60
2018-11-22T07:33:16.672Z,2.60
2018-11-22T07:35:46.252Z,2.70
2018-11-22T07:38:15.788Z,2.90
2018-11-22T07:40:45.191Z,3.20
2018-11-22T07:43:14.712Z,3.40
2018-11-22T07:45:44.140Z,3.80
2018-11-22T07:48:13.621Z,4.00
2018-11-22T07:50:43.026Z,4.90
2018-11-22T07:53:12.420Z,5.00
2018-11-22T07:55:41.908Z,4.40
2018-11-22T07:58:11.475Z,4.10
2018-11-22T08:00:42.056Z,4.00
2018-11-22T08:03:12.437Z,3.80
2018-11-22T08:05:43.221Z,3.70
2018-11-22T08:08:12.626Z,3.60
2018-11-22T08:10:42.116Z,3.50
2018-11-22T08:13:11.521Z,3.60
2018-11-22T08:15:41.649Z,3.70
2018-11-22T08:18:11.692Z,3.70
2018-11-22T08:20:41.122Z,3.80
2018-11-22T08:23:11.176Z,3.80
2018-11-22T08:25:40.588Z,4.10
2018-11-22T08:28:09.992Z,4.20
2018-11-22T08:30:39.584Z,4.30
2018-11-22T08:33:09.000Z,4.20
2018-11-22T08:35:38.408Z,4.20
2018-11-22T08:38:08.065Z,4.10
2018-11-22T08:40:37.485Z,4.10
2018-11-22T08:43:07.517Z,4.00
2018-11-22T08:45:36.924Z,4.00
2018-11-22T08:48:06.564Z,4.10
2018-11-22T08:50:35.974Z,4.10
2018-11-22T08:53:05.670Z,4.20
2018-11-22T08:55:35.084Z,4.20
2018-11-22T08:58:04.577Z,4.20
2018-11-22T09:00:34.565Z,4.20
2018-11-22T09:03:04.056Z,4.20
2018-11-22T09:05:35.248Z,4.10
2018-11-22T09:08:04.726Z,4.20
2018-11-22T09:10:34.156Z,4.30
2018-11-22T09:13:04.224Z,4.40
2018-11-22T09:15:34.452Z,4.60
2018-11-22T09:18:03.940Z,4.80
2018-11-22T09:20:34.284Z,4.90
2018-11-22T09:23:03.844Z,5.30
2018-11-22T09:25:33.285Z,5.50
2018-11-22T09:28:02.676Z,5.80
2018-11-22T09:30:33.523Z,6.60
2018-11-22T09:33:02.929Z,6.80
2018-11-22T09:35:33.667Z,6.70
2018-11-22T09:38:03.052Z,6.80
2018-11-22T09:40:33.810Z,7.30
2018-11-22T09:43:03.375Z,7.20
2018-11-22T09:45:40.386Z,6.70
2018-11-22T09:48:09.921Z,7.20
2018-11-22T09:50:39.274Z,7.40
2018-11-22T09:53:10.108Z,7.40
2018-11-22T09:55:39.575Z,7.20
2018-11-22T09:58:08.944Z,7.60
2018-11-22T10:00:38.491Z,7.30
2018-11-22T10:03:08.014Z,7.60
2018-11-22T10:05:37.976Z,7.90
2018-11-22T10:08:07.439Z,7.90
2018-11-22T12:16:05.782Z,11.60
2018-11-22T12:18:36.869Z,11.30
2018-11-22T12:21:02.081Z,11.60
2018-11-22T12:23:30.237Z,11.30
2018-11-22T12:25:58.374Z,11.10
2018-11-22T12:28:26.514Z,10.90
2018-11-22T12:30:54.667Z,11.40
2018-11-22T12:33:41.197Z,11.70
2018-11-22T12:36:14.902Z,12.10
2018-11-22T12:38:43.765Z,12.20
2018-11-22T12:41:11.942Z,12.00
2018-11-22T12:43:40.117Z,11.90
2018-11-22T12:46:08.290Z,11.90
2018-11-22T12:48:36.471Z,11.70
2018-11-22T12:51:04.674Z,12.00
2018-11-22T12:53:32.841Z,11.70
2018-11-22T12:56:01.017Z,11.30
2018-11-22T12:58:29.189Z,11.70
2018-11-22T13:00:58.230Z,11.80
2018-11-22T13:03:26.449Z,11.40
2018-11-22T13:05:54.622Z,11.70
2018-11-22T13:08:22.834Z,12.80
2018-11-22T13:10:51.160Z,13.80
2018-11-22T13:13:19.383Z,13.90
2018-11-22T13:15:47.550Z,14.70
2018-11-22T13:18:15.721Z,15.20
2018-11-22T13:20:45.470Z,15.30
2018-11-22T13:23:13.674Z,15.10
2018-11-22T13:25:41.866Z,14.50
2018-11-22T13:28:10.026Z,14.70
2018-11-22T13:30:38.216Z,14.80
2018-11-22T13:33:06.393Z,14.60
2018-11-22T13:35:34.594Z,14.90
2018-11-22T13:38:02.759Z,14.70
2018-11-22T13:40:30.943Z,15.00
2018-11-22T13:42:59.157Z,15.10
2018-11-22T13:45:28.438Z,15.10
2018-11-22T13:47:57.333Z,15.40
2018-11-22T13:50:30.012Z,15.10
2018-11-22T13:52:59.834Z,14.70
2018-11-22T13:55:28.022Z,14.00
2018-11-22T13:57:56.257Z,14.10
2018-11-22T14:00:25.818Z,13.90
2018-11-22T14:02:55.470Z,11.30
2018-11-22T14:05:23.705Z,10.40
2018-11-22T14:07:52.121Z,10.50
2018-11-22T14:10:20.913Z,10.00
2018-11-22T14:12:49.377Z,10.10
2018-11-22T14:15:18.894Z,9.70
2018-11-22T14:17:47.634Z,9.60
2018-11-22T14:20:18.317Z,9.40
2018-11-22T14:22:46.529Z,9.30
2018-11-22T14:25:15.582Z,9.30
2018-11-22T14:27:44.568Z,9.20
2018-11-22T14:30:21.759Z,9.00
2018-11-22T14:32:50.846Z,8.90
2018-11-22T14:35:19.850Z,8.80
2018-11-22T14:37:47.991Z,8.60
2018-11-22T14:40:17.626Z,8.60
2018-11-22T14:42:46.610Z,8.50
2018-11-22T14:45:15.411Z,8.60
2018-11-22T14:47:44.491Z,8.50
2018-11-22T14:50:18.373Z,8.40
2018-11-22T14:52:48.895Z,8.30
2018-11-22T14:55:17.041Z,8.30
2018-11-22T14:57:45.191Z,8.20
2018-11-22T15:00:14.539Z,8.10
2018-11-22T15:02:43.975Z,8.10
2018-11-22T15:05:12.774Z,7.90
2018-11-22T15:07:41.555Z,7.80
2018-11-22T15:10:11.479Z,7.70
2018-11-22T15:12:40.190Z,7.50
2018-11-22T15:15:10.687Z,7.40
2018-11-22T15:17:39.165Z,7.10
2018-11-22T15:20:09.133Z,7.00
2018-11-22T15:22:37.291Z,6.90
2018-11-22T15:25:06.926Z,6.80
2018-11-22T15:27:35.060Z,6.70
2018-11-22T15:30:04.505Z,6.50
2018-11-22T15:32:32.643Z,6.50
2018-11-22T15:35:00.823Z,6.40
2018-11-22T15:37:29.008Z,6.20
2018-11-22T15:39:57.146Z,6.10
2018-11-22T15:42:25.288Z,6.00
2018-11-22T15:44:53.434Z,5.90
2018-11-22T15:47:21.583Z,5.90
2018-11-22T15:49:49.716Z,6.00
2018-11-22T15:52:17.845Z,6.60
2018-11-22T15:54:45.992Z,5.90
2018-11-22T15:57:14.135Z,5.70
2018-11-22T15:59:42.279Z,5.60
2018-11-22T16:02:10.839Z,5.40
2018-11-22T16:04:41.616Z,5.30
2018-11-22T16:07:09.834Z,5.30
2018-11-22T16:09:38.619Z,5.40
2018-11-22T16:12:06.793Z,5.30
2018-11-22T16:14:34.918Z,5.30
2018-11-22T16:17:03.510Z,5.60
2018-11-22T16:19:31.874Z,4.80
2018-11-22T16:22:00.023Z,4.80
2018-11-22T16:24:28.191Z,4.50
2018-11-22T16:26:56.343Z,4.30
2018-11-22T16:29:24.485Z,4.20
2018-11-22T16:31:53.144Z,4.20
2018-11-22T16:34:21.343Z,4.10
2018-11-22T16:36:49.563Z,4.00
2018-11-22T16:39:18.198Z,4.00
2018-11-22T16:41:46.746Z,3.80
2018-11-22T16:44:14.923Z,3.80
2018-11-22T16:46:43.121Z,3.70
2018-11-22T16:49:13.480Z,3.60
2018-11-22T16:51:42.163Z,3.70
2018-11-22T16:54:10.393Z,3.60
2018-11-22T16:56:38.574Z,3.60
2018-11-22T16:59:06.749Z,3.50
2018-11-22T17:01:34.934Z,3.40
2018-11-22T17:04:03.097Z,3.30
2018-11-22T17:06:31.293Z,3.10
2018-11-22T17:08:59.469Z,3.20
2018-11-22T17:11:27.659Z,3.20
2018-11-22T17:13:55.834Z,3.20
2018-11-22T17:16:24.106Z,3.20
2018-11-22T17:18:52.286Z,3.20
2018-11-22T17:21:20.483Z,3.10
2018-11-22T17:23:48.639Z,3.00
2018-11-22T17:26:16.837Z,3.00
2018-11-22T17:28:45.017Z,3.10
2018-11-22T17:31:13.218Z,3.00
2018-11-22T17:33:41.403Z,3.00
2018-11-22T17:36:09.560Z,2.80
2018-11-22T17:38:37.724Z,2.70
2018-11-22T17:41:06.179Z,2.60
2018-11-22T17:43:34.339Z,2.70
2018-11-22T17:46:02.491Z,2.60
2018-11-22T17:48:30.627Z,2.50
2018-11-22T17:50:58.799Z,2.40
2018-11-22T17:53:26.958Z,2.40
2018-11-22T17:55:55.127Z,2.40
2018-11-22T17:58:23.380Z,2.60
2018-11-22T18:00:52.931Z,3.00
2018-11-22T18:03:21.181Z,3.20
2018-11-22T18:05:49.841Z,2.90
2018-11-22T18:08:18.090Z,2.60
2018-11-22T18:10:46.238Z,2.60
2018-11-22T18:13:14.438Z,2.50
2018-11-22T18:15:48.119Z,2.30
2018-11-22T18:18:16.291Z,2.10
2018-11-22T18:20:44.518Z,2.00
2018-11-22T18:23:12.719Z,2.00
2018-11-22T18:25:40.894Z,2.10
2018-11-22T18:28:09.058Z,2.10
2018-11-22T18:30:37.446Z,2.00
2018-11-22T18:33:06.991Z,1.90
2018-11-22T18:35:35.199Z,1.80
2018-11-22T18:38:03.780Z,1.70
2018-11-22T18:40:33.641Z,1.60
2018-11-22T18:43:02.844Z,1.60
2018-11-22T18:45:33.310Z,1.60
2018-11-22T18:48:02.446Z,1.50
2018-11-22T18:50:31.751Z,1.50
2018-11-22T18:53:00.004Z,1.50
2018-11-22T18:55:28.200Z,1.40
2018-11-22T18:57:56.333Z,1.40
2018-11-22T19:00:26.884Z,1.50
2018-11-22T19:02:56.463Z,1.40
2018-11-22T19:05:24.767Z,1.90
2018-11-22T19:07:53.707Z,2.30
2018-11-22T19:10:33.963Z,2.50
2018-11-22T19:13:03.544Z,2.30
2018-11-22T19:15:33.159Z,1.70
2018-11-22T19:18:01.459Z,1.50
2018-11-22T19:20:31.874Z,1.50
2018-11-22T19:23:01.058Z,1.50
2018-11-22T19:25:29.221Z,2.00
2018-11-22T19:27:58.227Z,2.50
2018-11-22T19:30:27.605Z,2.60
2018-11-22T19:32:57.055Z,2.60
2018-11-22T19:35:26.822Z,2.70
2018-11-22T19:37:55.096Z,2.80
2018-11-22T19:40:29.639Z,2.80
2018-11-22T19:42:59.260Z,2.70
2018-11-22T19:45:29.047Z,2.70
2018-11-22T19:47:57.405Z,2.80
2018-11-22T19:50:26.779Z,2.80
2018-11-22T19:52:55.841Z,2.80
2018-11-22T19:55:25.640Z,2.70
2018-11-22T19:57:55.145Z,2.80
2018-11-22T20:00:25.175Z,2.80
2018-11-22T20:02:56.279Z,2.70
2018-11-22T20:05:25.492Z,2.70
2018-11-22T20:07:57.225Z,2.70
2018-11-22T20:10:31.804Z,2.70
2018-11-22T20:13:00.240Z,2.70
2018-11-22T20:15:28.858Z,2.70
2018-11-22T20:17:58.989Z,2.60
2018-11-22T20:20:27.537Z,2.60
2018-11-22T20:22:56.347Z,2.60
2018-11-22T20:25:24.747Z,2.60
2018-11-22T20:27:54.321Z,2.60
2018-11-22T20:30:27.182Z,2.60
2018-11-22T20:32:55.487Z,2.60
2018-11-22T20:35:24.160Z,2.50
2018-11-22T20:37:53.371Z,2.40
2018-11-22T20:40:22.675Z,2.40
2018-11-22T20:42:50.933Z,2.30
2018-11-22T20:45:20.437Z,2.20
2018-11-22T20:47:50.945Z,2.20
2018-11-22T20:50:20.814Z,2.30
2018-11-22T20:52:49.107Z,2.30
2018-11-22T20:55:22.965Z,2.40
2018-11-22T20:57:53.164Z,2.40
2018-11-22T21:00:22.786Z,2.30
2018-11-22T21:02:51.153Z,2.20
2018-11-22T21:05:20.135Z,2.10
2018-11-22T21:07:48.395Z,2.10
2018-11-22T21:10:19.059Z,2.00
2018-11-22T21:12:47.330Z,2.10
2018-11-22T21:15:17.854Z,2.00
2018-11-22T21:17:47.098Z,2.00
2018-11-22T21:20:16.499Z,2.00
2018-11-22T21:22:44.852Z,2.10
2018-11-22T21:25:14.488Z,2.10
2018-11-22T21:27:42.744Z,2.20
2018-11-22T21:30:36.885Z,2.20
2018-11-22T21:33:05.292Z,2.10
2018-11-22T21:35:33.870Z,2.10
2018-11-22T21:38:03.025Z,2.20
2018-11-22T21:40:31.839Z,2.20
2018-11-22T21:43:00.083Z,2.10
2018-11-22T21:45:28.902Z,1.90
2018-11-22T21:47:57.319Z,1.90
2018-11-22T21:50:26.684Z,1.80
2018-11-22T21:52:54.978Z,1.70
2018-11-22T21:55:25.484Z,1.60
2018-11-22T21:57:55.091Z,1.50
2018-11-22T22:00:26.200Z,1.10
2018-11-22T22:02:57.065Z,0.90
2018-11-22T22:05:25.278Z,1.00
2018-11-22T22:07:53.567Z,1.00
2018-11-22T22:10:21.785Z,0.90
2018-11-22T22:12:50.100Z,0.70
2018-11-22T22:15:20.876Z,0.60
2018-11-22T22:17:49.252Z,0.50
2018-11-22T22:20:18.992Z,0.50
2018-11-22T22:22:47.249Z,0.40
2018-11-22T22:25:16.662Z,0.40
2018-11-22T22:27:45.326Z,0.50
2018-11-22T22:30:18.262Z,0.50
2018-11-22T22:32:47.257Z,0.40
2018-11-22T22:35:15.468Z,0.40
2018-11-22T22:37:43.625Z,0.30
2018-11-22T22:40:16.201Z,0.20
2018-11-22T22:42:45.444Z,0.20
2018-11-22T22:45:14.542Z,0.10
2018-11-22T22:47:43.434Z,0.20
2018-11-22T22:50:14.238Z,0.10
2018-11-22T22:52:42.386Z,0.10
2018-11-22T22:55:11.422Z,0.10
2018-11-22T22:57:39.851Z,0.00
2018-11-22T23:00:18.489Z,0.00
2018-11-22T23:02:46.757Z,0.10
2018-11-22T23:05:14.982Z,0.00
2018-11-22T23:07:43.137Z,-0.10
2018-11-22T23:10:11.314Z,-0.10
2018-11-22T23:12:39.506Z,0.00
2018-11-22T23:15:10.230Z,0.00
2018-11-22T23:17:38.860Z,-0.10
2018-11-22T23:20:10.769Z,-0.20
2018-11-22T23:22:39.267Z,-0.20
2018-11-22T23:25:07.700Z,-0.20
2018-11-22T23:27:35.949Z,-0.20
2018-11-22T23:30:05.594Z,-0.30
2018-11-22T23:32:33.812Z,-0.40
2018-11-22T23:35:01.982Z,-0.20
2018-11-22T23:37:30.130Z,-0.20
2018-11-22T23:39:58.298Z,-0.30
2018-11-22T23:42:26.447Z,-0.30
2018-11-22T23:44:54.621Z,-0.30
2018-11-22T23:47:22.769Z,-0.30
2018-11-22T23:49:50.939Z,-0.40
2018-11-22T23:52:19.085Z,-0.30
2018-11-22T23:54:47.262Z,-0.30
2018-11-22T23:57:15.421Z,-0.40
2018-11-22T23:59:43.569Z,-0.50
